Lesmahagow, United Kingdom
Current Conditions -  °F | °C
As of 4:20 AM on Saturday 25 Oct 2014 (Local Time) from EGPF Reporting Station
Broken Clouds Broken Clouds  
Wind Chill: 11°   Ceiling: 1700
Heat Index: 11°   Visibility: 6mi
Dew Point:   Wind: 16mph
Humidity: 82%   Direction: 210°SSW
Pressure: 29.68"   Gusts: NA
Location:  55.64°N, 3.89°W
Report Text: EGPF 250320Z AUTO 21014KT 9999 BKN017 BKN031 11/08 Q1005
Loading
Personal Weather Stations






























Interactive Weather Map
Tropical Storm Tracking
New forecast layout! Learn more

10-Day Weather Forecast

Advertisements
Track Severe Weather on mobile